Time;durP1;ratioP1;P1;durP2;ratioP2;P2;SDS_P1;SDS_P2;PMS_P1;PMS_P2;Temp;Humidity;BMP_temperature;BMP_pressure;BME280_temperature;BME280_humidity;BME280_pressure;Samples;Min_cycle;Max_cycle;Signal;HPM_P1;HPM_P2
2022/08/18 00:01:49;;;;;;;52.03;36.55;;;;;;;22.64;63.68;101169.72;4947826;28;125178;-74
2022/08/18 00:04:16;;;;;;;55.63;36.38;;;;;;;22.64;63.71;101175.13;4954393;28;119142;-73
2022/08/18 00:07:06;;;;;;;52.92;36.88;;;;;;;22.66;63.65;101181.22;4960495;28;119608;-74
2022/08/18 00:09:35;;;;;;;54.83;37.40;;;;;;;22.67;63.69;101180.22;4944677;28;122936;-73
2022/08/18 00:12:08;;;;;;;53.70;36.80;;;;;;;22.68;63.67;101179.25;4964607;28;124422;-74
2022/08/18 00:14:35;;;;;;;54.10;36.78;;;;;;;22.71;63.68;101184.34;4957879;28;120116;-73
2022/08/18 00:17:03;;;;;;;53.13;34.97;;;;;;;22.74;63.73;101191.34;4949324;28;120729;-74
2022/08/18 00:19:30;;;;;;;52.53;37.22;;;;;;;22.75;63.76;101182.22;4960636;28;123057;-73
2022/08/18 00:22:16;;;;;;;54.17;35.63;;;;;;;22.77;63.76;101192.88;4949179;28;122617;-74
2022/08/18 00:24:46;;;;;;;51.63;34.42;;;;;;;22.80;63.82;101184.50;4945539;28;117105;-74
2022/08/18 00:27:20;;;;;;;51.25;35.95;;;;;;;22.81;63.78;101180.81;4964628;28;119610;-74
2022/08/18 00:29:51;;;;;;;55.57;36.27;;;;;;;22.83;63.84;101184.22;4945287;28;123562;-74
2022/08/18 00:32:26;;;;;;;51.47;35.33;;;;;;;22.85;63.83;101193.03;4962410;28;122912;-74
2022/08/18 00:34:53;;;;;;;48.63;35.05;;;;;;;22.86;63.76;101183.94;4962306;28;119019;-74
2022/08/18 00:37:22;;;;;;;53.83;34.92;;;;;;;22.89;63.85;101183.69;4958106;28;118999;-74
2022/08/18 00:39:51;;;;;;;52.40;34.78;;;;;;;22.90;63.92;101185.38;4957649;28;124120;-74
2022/08/18 00:42:22;;;;;;;51.55;36.42;;;;;;;22.92;63.87;101184.25;4931186;28;123057;-74
2022/08/18 00:45:03;;;;;;;52.58;35.75;;;;;;;22.94;63.75;101189.47;4956507;28;117887;-74
2022/08/18 00:47:30;;;;;;;52.38;35.60;;;;;;;22.96;63.74;101183.94;4957736;28;119877;-74
2022/08/18 00:50:14;;;;;;;49.67;35.05;;;;;;;22.98;63.79;101198.16;4957651;28;124243;-74
2022/08/18 00:52:52;;;;;;;51.97;35.20;;;;;;;22.97;63.68;101205.41;4954037;28;123935;-73
2022/08/18 00:55:21;;;;;;;44.88;31.60;;;;;;;22.99;63.66;101206.13;4944848;28;118687;-74
2022/08/18 00:57:51;;;;;;;50.92;34.70;;;;;;;23.00;63.63;101213.25;4955764;28;118894;-74
2022/08/18 01:00:21;;;;;;;48.42;34.67;;;;;;;23.00;63.62;101212.38;4945025;28;123024;-74
2022/08/18 01:02:55;;;;;;;51.08;33.50;;;;;;;23.00;63.47;101213.25;4945617;28;123523;-74
2022/08/18 01:05:25;;;;;;;46.92;33.15;;;;;;;22.99;63.64;101208.84;4961267;28;120020;-74
2022/08/18 01:07:52;;;;;;;49.88;33.25;;;;;;;22.99;63.65;101208.84;4961025;28;120090;-74
2022/08/18 01:10:22;;;;;;;47.35;32.72;;;;;;;22.99;63.66;101200.72;4959437;28;123192;-73
2022/08/18 01:12:53;;;;;;;47.72;31.63;;;;;;;22.97;63.78;101205.41;4961865;28;123562;-74
2022/08/18 01:15:22;;;;;;;45.35;31.92;;;;;;;22.96;63.75;101201.00;4960359;28;119166;-73
2022/08/18 01:23:54;;;;;;;45.75;30.77;;;;;;;22.93;63.87;101193.19;4961140;28;123540;-74
2022/08/18 01:26:24;;;;;;;45.95;31.05;;;;;;;22.92;64.07;101199.56;4962804;28;119107;-74
2022/08/18 01:28:52;;;;;;;45.40;30.65;;;;;;;22.92;64.20;101194.19;4942790;28;119720;-74
2022/08/18 01:31:53;;;;;;;43.13;30.05;;;;;;;22.91;64.14;101192.50;4955189;28;123690;-73
2022/08/18 01:34:24;;;;;;;41.03;28.90;;;;;;;22.93;64.19;101190.50;4945586;28;123822;-74
2022/08/18 01:36:53;;;;;;;44.08;30.35;;;;;;;22.94;64.31;101197.59;4959305;28;119341;-73
2022/08/18 01:39:21;;;;;;;42.58;29.65;;;;;;;22.93;64.33;101196.75;4959320;28;118343;-73
2022/08/18 01:42:09;;;;;;;43.28;28.50;;;;;;;22.93;64.29;101198.59;4958391;28;123924;-74
2022/08/18 01:44:39;;;;;;;44.97;30.35;;;;;;;22.94;64.31;101192.19;4943804;28;124779;-74
2022/08/18 01:47:09;;;;;;;40.55;28.55;;;;;;;22.93;64.27;101191.34;4960146;28;119142;-73
2022/08/18 01:49:41;;;;;;;42.05;27.95;;;;;;;22.94;64.46;101197.59;4958686;28;118998;-73
2022/08/18 01:52:14;;;;;;;41.40;28.58;;;;;;;22.94;64.52;101203.00;4956291;28;124865;-74
2022/08/18 01:54:41;;;;;;;39.58;27.25;;;;;;;22.94;64.53;101193.06;4957968;28;121742;-74
2022/08/18 01:57:12;;;;;;;41.95;27.85;;;;;;;22.97;64.46;101202.72;4958873;28;120295;-74
2022/08/18 01:59:40;;;;;;;39.83;27.70;;;;;;;22.97;64.50;101202.72;4962103;28;121119;-73
2022/08/18 02:02:11;;;;;;;42.58;27.55;;;;;;;22.98;64.35;101209.84;4927798;28;123517;-74
2022/08/18 02:04:46;;;;;;;42.40;27.08;;;;;;;22.98;64.09;101198.16;4961810;28;124158;-73
2022/08/18 02:07:13;;;;;;;38.55;26.70;;;;;;;22.96;64.25;101195.59;4951464;28;118659;-74
2022/08/18 02:09:42;;;;;;;38.67;25.95;;;;;;;22.94;64.31;101197.59;4962284;28;118954;-74
2022/08/18 02:12:10;;;;;;;36.97;26.17;;;;;;;22.92;64.15;101188.78;4958673;28;125143;-74
2022/08/18 02:14:37;;;;;;;34.85;25.48;;;;;;;22.87;64.26;101196.47;4946440;28;122952;-74
2022/08/18 02:17:07;;;;;;;39.25;24.88;;;;;;;22.83;64.20;101193.19;4961988;28;120877;-73
2022/08/18 02:19:37;;;;;;;34.92;24.80;;;;;;;22.80;64.27;101195.31;4960404;28;120144;-74
2022/08/18 02:22:06;;;;;;;34.38;24.35;;;;;;;22.79;64.35;101201.69;4940875;28;123291;-74
2022/08/18 02:24:33;;;;;;;37.35;24.55;;;;;;;22.79;64.50;101209.81;4961669;28;123944;-74
2022/08/18 02:27:00;;;;;;;33.22;23.67;;;;;;;22.79;64.38;101209.81;4959265;28;119346;-74
2022/08/18 02:29:28;;;;;;;34.25;24.52;;;;;;;22.79;64.35;101215.19;4961834;28;119749;-74
2022/08/18 02:31:55;;;;;;;35.13;24.70;;;;;;;22.77;64.30;101217.19;4964358;28;124820;-73
2022/08/18 02:34:24;;;;;;;34.92;23.73;;;;;;;22.76;64.39;101210.09;4964169;28;123969;-74
2022/08/18 02:36:51;;;;;;;33.75;23.95;;;;;;;22.74;64.37;101213.78;4958091;28;118698;-74
2022/08/18 02:39:19;;;;;;;34.58;24.40;;;;;;;22.73;64.49;101217.50;4962784;28;119872;-74
2022/08/18 02:41:46;;;;;;;33.78;22.90;;;;;;;22.71;64.27;101214.03;4963581;28;123076;-74
2022/08/18 02:44:13;;;;;;;31.88;22.83;;;;;;;22.70;64.27;101220.47;4937058;28;123272;-74
2022/08/18 02:46:40;;;;;;;30.88;23.05;;;;;;;22.67;64.28;101223.44;4948800;28;120136;-73
2022/08/18 02:49:08;;;;;;;32.72;22.67;;;;;;;22.67;64.17;101227.97;4948097;28;118634;-74
2022/08/18 02:51:35;;;;;;;32.63;22.40;;;;;;;22.66;64.35;101224.44;4958798;28;123208;-74
2022/08/18 02:54:02;;;;;;;31.05;22.05;;;;;;;22.66;64.09;101231.66;4964563;28;124493;-74
2022/08/18 02:56:30;;;;;;;29.88;22.00;;;;;;;22.66;64.41;101232.53;4960869;28;119713;-74
2022/08/18 02:59:11;;;;;;;31.42;21.40;;;;;;;22.65;64.30;101236.22;4945723;28;118971;-73
2022/08/18 03:01:41;;;;;;;29.48;21.50;;;;;;;22.65;64.23;101225.41;4963696;28;123506;-74
2022/08/18 03:04:13;;;;;;;27.08;19.70;;;;;;;22.66;64.24;101240.63;4954816;28;123669;-74
2022/08/18 03:06:41;;;;;;;26.80;19.67;;;;;;;22.66;64.08;101221.72;4961555;28;119773;-74
2022/08/18 03:09:13;;;;;;;25.00;19.20;;;;;;;22.64;64.10;101229.13;4964386;28;120247;-74
2022/08/18 03:11:40;;;;;;;26.83;19.13;;;;;;;22.63;64.03;101230.09;4966949;28;123906;-74
2022/08/18 03:14:10;;;;;;;25.67;18.92;;;;;;;22.61;63.98;101234.78;4961112;28;124397;-74
2022/08/18 03:16:40;;;;;;;26.35;18.65;;;;;;;22.60;64.02;101224.97;4960848;28;119076;-74
2022/08/18 03:19:19;;;;;;;28.60;19.05;;;;;;;22.59;64.01;101230.53;4948465;28;119451;-74
2022/08/18 03:21:46;;;;;;;27.95;18.75;;;;;;;22.59;64.00;101225.97;4931061;28;123290;-74
2022/08/18 03:24:14;;;;;;;25.35;19.20;;;;;;;22.58;63.97;101218.84;4957490;28;124645;-74
2022/08/18 03:26:49;;;;;;;25.50;18.98;;;;;;;22.57;63.98;101219.84;4946319;28;119097;-74
2022/08/18 03:29:18;;;;;;;25.70;18.77;;;;;;;22.56;63.84;101215.44;4955371;28;118325;-74
2022/08/18 03:31:47;;;;;;;24.80;19.38;;;;;;;22.56;63.91;101215.44;4960649;28;124314;-74
2022/08/18 03:34:18;;;;;;;25.58;19.08;;;;;;;22.56;63.92;101223.53;4960722;28;123385;-74
2022/08/18 03:36:47;;;;;;;25.83;18.73;;;;;;;22.56;64.00;101215.44;4960971;28;121168;-73
2022/08/18 03:39:15;;;;;;;26.48;18.73;;;;;;;22.56;63.74;101210.03;4960382;28;119961;-74
2022/08/18 03:41:44;;;;;;;25.23;19.38;;;;;;;22.55;63.82;101219.16;4944432;28;124274;-73
2022/08/18 03:44:32;;;;;;;26.75;19.50;;;;;;;22.53;63.70;101215.75;4959133;28;126417;-74
2022/08/18 03:47:02;;;;;;;24.30;18.30;;;;;;;22.52;63.65;101224.81;4941582;28;118642;-74
2022/08/18 03:49:31;;;;;;;21.40;17.27;;;;;;;22.48;63.66;101223.38;4957834;28;118948;-74
2022/08/18 03:52:01;;;;;;;22.33;17.08;;;;;;;22.44;63.69;101221.97;4959187;28;123825;-74
2022/08/18 03:54:30;;;;;;;22.83;16.42;;;;;;;22.41;63.72;101224.91;4958631;28;122923;-74
2022/08/18 03:56:59;;;;;;;21.80;16.10;;;;;;;22.35;63.63;101212.81;4959943;28;119669;-74
2022/08/18 03:59:29;;;;;;;21.30;16.15;;;;;;;22.31;63.77;101225.72;4959045;28;118968;-74
2022/08/18 04:01:56;;;;;;;20.30;15.63;;;;;;;22.28;63.60;101217.94;4963962;28;122611;-73
2022/08/18 04:04:26;;;;;;;20.88;15.07;;;;;;;22.25;63.60;101220.88;4965122;28;123836;-74
2022/08/18 04:06:57;;;;;;;20.30;15.45;;;;;;;22.23;63.63;101222.84;4965938;28;118850;-74
2022/08/18 04:09:27;;;;;;;17.98;14.68;;;;;;;22.23;63.60;101217.44;4947840;28;118603;-73
2022/08/18 04:11:56;;;;;;;18.67;14.98;;;;;;;22.23;63.51;101219.28;4960998;28;124062;-73
2022/08/18 04:14:29;;;;;;;18.40;15.07;;;;;;;22.23;63.47;101217.44;4959999;28;122946;-74
2022/08/18 04:16:57;;;;;;;18.42;14.63;;;;;;;22.22;63.35;101217.56;4949045;28;119029;-74
2022/08/18 04:19:25;;;;;;;20.88;14.43;;;;;;;22.22;63.27;101218.41;4956355;28;119346;-74
2022/08/18 04:21:56;;;;;;;18.98;14.27;;;;;;;22.21;63.10;101216.72;4959990;28;123761;-74
2022/08/18 04:24:25;;;;;;;18.42;14.40;;;;;;;22.18;63.04;101206.19;4948142;28;123132;-73
2022/08/18 04:26:55;;;;;;;21.80;15.55;;;;;;;22.15;63.00;101206.47;4962553;28;120670;-73
2022/08/18 04:29:23;;;;;;;20.25;13.95;;;;;;;22.11;63.05;101207.72;4960308;28;119710;-73
2022/08/18 04:31:50;;;;;;;21.45;15.40;;;;;;;22.09;63.18;101213.25;4963649;28;124904;-73
2022/08/18 04:34:21;;;;;;;20.90;14.70;;;;;;;22.06;63.24;101216.22;4948289;28;122358;-73
2022/08/18 04:36:52;;;;;;;22.55;16.20;;;;;;;22.05;63.27;101224.47;4962479;28;119149;-74
2022/08/18 04:39:20;;;;;;;21.30;16.15;;;;;;;22.03;63.40;101223.75;4962618;28;119002;-74
2022/08/18 04:41:48;;;;;;;23.25;16.48;;;;;;;22.03;63.66;101223.75;4965996;28;123883;-73
2022/08/18 04:44:17;;;;;;;22.05;16.67;;;;;;;22.01;63.75;101225.72;4946657;28;123126;-74
2022/08/18 04:46:47;;;;;;;22.30;16.75;;;;;;;22.02;63.82;101232.81;4965315;28;120031;-74
2022/08/18 04:49:16;;;;;;;23.83;16.17;;;;;;;22.03;63.93;101234.53;4966073;28;119029;-74
2022/08/18 04:53:43;;;;;;;21.65;16.23;;;;;;;22.05;63.95;101237.94;4959690;28;123970;-74
2022/08/18 04:54:55;;;;;;;25.27;16.58;;;;;;;22.09;63.87;101239.38;4960106;28;123626;-73
2022/08/18 04:57:22;;;;;;;20.00;16.02;;;;;;;22.12;64.01;101244.53;4946266;28;118301;-74
2022/08/18 04:59:51;;;;;;;23.08;16.42;;;;;;;22.15;63.96;101249.63;4955146;28;118937;-74
2022/08/18 05:02:20;;;;;;;21.75;16.95;;;;;;;22.17;64.10;101242.28;4959665;28;125019;-74
2022/08/18 05:04:47;;;;;;;26.52;17.33;;;;;;;22.21;63.79;101249.09;4963805;28;124405;-73
2022/08/18 05:07:18;;;;;;;22.55;16.92;;;;;;;22.24;63.85;101254.22;4965212;28;119193;-73
2022/08/18 05:09:45;;;;;;;21.23;15.60;;;;;;;22.27;63.82;101258.53;4964579;28;119881;-73
2022/08/18 05:12:14;;;;;;;22.23;17.88;;;;;;;22.28;63.95;101250.31;4945836;28;123144;-74
2022/08/18 05:14:43;;;;;;;24.77;18.70;;;;;;;22.30;64.03;101253.72;4963706;28;123650;-74
2022/08/18 05:17:11;;;;;;;28.30;20.05;;;;;;;22.31;63.86;101252.72;4960998;28;119713;-74
2022/08/18 05:19:39;;;;;;;25.40;19.55;;;;;;;22.30;63.87;101248.34;4963157;28;119254;-74
2022/08/18 05:22:13;;;;;;;25.50;19.88;;;;;;;22.30;63.99;101252.84;4960435;28;123856;-73
2022/08/18 05:24:42;;;;;;;27.75;20.42;;;;;;;22.29;64.06;101252.00;4962566;28;123721;-74
2022/08/18 05:27:09;;;;;;;31.20;21.30;;;;;;;22.29;63.79;101252.00;4954771;28;119615;-74
2022/08/18 05:29:36;;;;;;;29.75;21.60;;;;;;;22.28;64.09;101247.63;4944256;28;118204;-74
2022/08/18 05:32:13;;;;;;;28.73;21.00;;;;;;;22.28;63.98;101250.31;4956502;28;124337;-74
2022/08/18 05:35:08;;;;;;;34.00;22.70;;;;;;;22.30;64.04;101258.25;4958844;28;123231;-74
2022/08/18 05:37:55;;;;;;;31.27;21.65;;;;;;;22.30;64.02;101255.53;4947783;28;119049;-74
2022/08/18 05:40:24;;;;;;;28.83;21.00;;;;;;;22.31;64.06;101255.41;4957564;28;118846;-74
2022/08/18 05:42:56;;;;;;;30.15;20.17;;;;;;;22.32;64.05;101251.75;4942010;28;123129;-73
2022/08/18 05:45:23;;;;;;;27.88;19.52;;;;;;;22.35;64.12;101256.84;4955483;28;124054;-74
2022/08/18 05:47:58;;;;;;;28.27;20.33;;;;;;;22.40;64.10;101269.09;4955005;28;119264;-74
2022/08/18 05:50:26;;;;;;;;;;;;;;;22.41;63.90;101254.59;4962820;28;119287;-73
2022/08/18 05:52:57;;;;;;;26.13;18.42;;;;;;;22.47;64.38;101264.84;4975333;28;125487;-73
2022/08/18 05:58:36;;;;;;;26.58;19.02;;;;;;;22.48;63.94;101261.19;4967409;28;119409;-73
2022/08/18 06:01:15;;;;;;;25.52;17.60;;;;;;;22.48;64.11;101261.19;4958736;28;118746;-73
2022/08/18 06:03:49;;;;;;;25.52;17.48;;;;;;;22.47;64.01;101262.16;4961666;28;124639;-73
2022/08/18 06:06:29;;;;;;;25.98;17.70;;;;;;;22.49;64.13;101270.97;4960592;28;123742;-73
2022/08/18 06:09:31;;;;;;;27.05;18.85;;;;;;;22.50;63.99;101267.28;4962090;28;119414;-73
2022/08/18 06:12:17;;;;;;;24.25;17.73;;;;;;;22.51;64.20;101271.72;4962307;28;119740;-73
2022/08/18 06:14:44;;;;;;;24.90;17.58;;;;;;;22.53;64.26;101273.28;4966706;28;124454;-73
2022/08/18 06:17:17;;;;;;;24.13;16.88;;;;;;;22.58;64.33;101280.94;4964858;28;124590;-73
2022/08/18 06:20:05;;;;;;;23.67;16.33;;;;;;;22.63;64.21;101280.56;4962671;28;119084;-73
2022/08/18 06:22:55;;;;;;;24.35;17.27;;;;;;;22.68;64.33;101283.72;4939537;28;118603;-74
2022/08/18 06:25:34;;;;;;;23.17;15.93;;;;;;;22.72;64.26;101285.97;4950853;28;124792;-74
2022/08/18 06:28:06;;;;;;;21.70;14.52;;;;;;;22.77;64.06;101284.72;4964199;28;122282;-73
2022/08/18 06:30:48;;;;;;;22.92;15.93;;;;;;;22.83;64.36;101292.25;4955376;28;118116;-73
2022/08/18 06:33:33;;;;;;;21.67;15.43;;;;;;;22.89;64.26;101291.72;4964093;28;118039;-73
2022/08/18 06:36:19;;;;;;;20.45;14.70;;;;;;;22.97;64.23;101289.16;4964454;28;124078;-73
2022/08/18 06:39:28;;;;;;;21.63;15.52;;;;;;;23.07;64.03;101300.88;4962153;28;123600;-73
2022/08/18 06:41:55;;;;;;;18.33;14.93;;;;;;;23.16;64.05;101298.34;4947789;28;118575;-73
2022/08/18 06:44:31;;;;;;;21.58;14.38;;;;;;;23.23;63.80;101304.91;4968425;28;119343;-73
2022/08/18 06:47:14;;;;;;;23.92;15.70;;;;;;;23.28;63.62;101297.19;4966786;28;123873;-73
2022/08/18 06:49:50;;;;;;;19.15;13.95;;;;;;;23.31;63.45;101302.34;4966133;28;122834;-73
2022/08/18 06:52:18;;;;;;;21.55;14.77;;;;;;;23.36;63.50;101289.25;4965926;28;119803;-73
2022/08/18 06:54:46;;;;;;;22.27;14.55;;;;;;;23.41;63.43;101292.38;4951003;28;118167;-73
2022/08/18 06:57:26;;;;;;;21.17;14.27;;;;;;;23.46;63.30;101290.09;4965036;28;124604;-74
2022/08/18 07:00:01;;;;;;;17.65;13.48;;;;;;;23.51;63.04;101293.25;4947244;28;123885;-73
2022/08/18 07:02:37;;;;;;;20.45;13.90;;;;;;;23.57;62.77;101290.97;4962360;28;120650;-73
2022/08/18 07:05:06;;;;;;;19.45;14.95;;;;;;;23.60;62.98;101290.66;4966884;28;119224;-74
2022/08/18 07:07:39;;;;;;;20.88;14.40;;;;;;;23.66;62.97;101284.69;4967460;28;123086;-73
2022/08/18 07:10:31;;;;;;;19.25;13.80;;;;;;;23.71;62.91;101291.38;4968531;28;123771;-74
2022/08/18 07:13:20;;;;;;;17.50;13.32;;;;;;;23.79;62.66;101304.22;4965352;28;119271;-74
2022/08/18 07:15:48;;;;;;;17.80;12.98;;;;;;;23.82;62.16;101301.19;4964282;28;119713;-73
2022/08/18 07:18:23;;;;;;;16.48;12.85;;;;;;;23.83;62.27;101294.81;4960654;28;123864;-74
2022/08/18 07:20:56;;;;;;;17.83;12.30;;;;;;;23.90;61.92;101308.59;4950269;28;123168;-73
2022/08/18 07:23:29;;;;;;;17.25;12.57;;;;;;;23.96;62.16;101299.03;4957740;28;119283;-73
2022/08/18 07:26:03;;;;;;;16.98;12.15;;;;;;;24.01;61.91;101304.88;4948529;28;118834;-73
2022/08/18 07:28:37;;;;;;;18.23;12.07;;;;;;;24.08;61.67;101306.00;4962080;28;122832;-74
2022/08/18 07:31:34;;;;;;;14.52;11.98;;;;;;;24.16;61.48;101306.13;4959665;28;123125;-73
2022/08/18 07:34:35;;;;;;;14.35;11.50;;;;;;;24.23;61.21;101309.94;4958169;28;121492;-74
2022/08/18 07:37:31;;;;;;;14.05;11.45;;;;;;;24.37;61.39;101313.19;4941000;28;118837;-74
2022/08/18 07:40:05;;;;;;;16.92;12.32;;;;;;;24.51;61.01;101301.88;4959773;28;124190;-74
2022/08/18 07:43:14;;;;;;;18.05;12.15;;;;;;;24.72;61.13;101308.94;4943126;28;123978;-74
2022/08/18 07:45:45;;;;;;;19.15;12.70;;;;;;;24.94;60.72;101303.13;4958987;28;119272;-74
2022/08/18 07:48:16;;;;;;;16.65;12.57;;;;;;;25.10;60.47;101323.28;4961004;28;119257;-74
2022/08/18 07:51:14;;;;;;;14.45;11.88;;;;;;;25.14;59.49;101319.25;4959574;28;124604;-74
2022/08/18 07:53:53;;;;;;;15.85;11.88;;;;;;;25.12;59.36;101321.28;4957309;28;123336;-74
2022/08/18 07:56:48;;;;;;;12.52;10.65;;;;;;;25.10;58.87;101307.84;4958191;28;121039;-73
2022/08/18 07:59:22;;;;;;;13.25;10.90;;;;;;;25.12;58.78;101315.84;4963733;28;120734;-73
2022/08/18 08:01:49;;;;;;;12.43;10.50;;;;;;;25.21;58.76;101314.94;4962113;28;123544;-74
2022/08/18 08:04:38;;;;;;;13.50;10.90;;;;;;;25.30;58.85;101314.03;4966803;28;123550;-74
2022/08/18 08:07:11;;;;;;;11.38;9.48;;;;;;;25.41;58.37;101311.09;4966252;28;119109;-73
2022/08/18 08:10:15;;;;;;;10.93;9.63;;;;;;;25.45;58.27;101301.66;4952795;28;117725;-74
2022/08/18 08:12:54;;;;;;;11.60;9.75;;;;;;;25.48;57.96;101305.06;4964651;28;124585;-74
2022/08/18 08:16:00;;;;;;;12.07;9.52;;;;;;;25.47;58.24;101311.47;4949556;28;123973;-74
2022/08/18 08:18:51;;;;;;;15.48;10.20;;;;;;;25.45;57.77;101312.50;4933312;28;118210;-73
2022/08/18 08:21:21;;;;;;;13.80;10.15;;;;;;;25.44;57.94;101310.78;4961199;28;118853;-74
2022/08/18 08:24:13;;;;;;;12.73;9.27;;;;;;;25.43;57.58;101309.09;4935658;28;123043;-74
2022/08/18 08:26:54;;;;;;;12.32;9.32;;;;;;;25.42;57.37;101312.78;4943524;28;123912;-73
2022/08/18 08:29:24;;;;;;;10.45;8.70;;;;;;;25.43;57.52;101309.09;4942826;28;117445;-74
2022/08/18 08:32:05;;;;;;;14.02;9.32;;;;;;;25.50;57.43;101308.47;4964985;28;117911;-73
2022/08/18 08:34:46;;;;;;;10.30;8.45;;;;;;;25.59;57.73;101313.78;4966146;28;125506;-73
2022/08/18 08:37:26;;;;;;;11.15;8.55;;;;;;;25.70;57.38;101315.41;4966311;28;124174;-74
2022/08/18 08:40:17;;;;;;;12.77;8.82;;;;;;;25.87;57.42;101315.56;4964126;28;119361;-74
2022/08/18 08:43:00;;;;;;;9.35;8.00;;;;;;;26.03;57.33;101318.41;4965184;28;119028;-74
2022/08/18 08:45:35;;;;;;;12.35;9.00;;;;;;;26.14;57.19;101315.44;4964092;28;124260;-74
2022/08/18 08:48:06;;;;;;;12.00;8.07;;;;;;;26.20;56.54;101312.09;4965113;28;123404;-74
2022/08/18 08:50:52;;;;;;;11.77;8.35;;;;;;;26.21;56.17;101327.34;4963229;28;120601;-74
2022/08/18 08:53:44;;;;;;;12.18;8.65;;;;;;;26.20;55.97;101328.38;4966632;28;119842;-74
2022/08/18 08:56:15;;;;;;;12.27;9.30;;;;;;;26.18;55.80;101330.41;4964237;28;123336;-74
2022/08/18 08:58:48;;;;;;;10.90;9.05;;;;;;;26.18;55.63;101330.41;4964761;28;123106;-74
2022/08/18 09:01:28;;;;;;;13.73;9.20;;;;;;;26.21;56.20;101327.34;4958102;28;119749;-73
2022/08/18 09:03:59;;;;;;;10.93;9.30;;;;;;;26.31;56.18;101324.53;4958925;28;119227;-74
2022/08/18 09:06:48;;;;;;;10.57;8.68;;;;;;;26.42;56.14;101331.56;4963880;28;124067;-74
2022/08/18 09:09:41;;;;;;;11.18;7.95;;;;;;;26.50;55.62;101328.88;4967337;28;122946;-73
2022/08/18 09:12:25;;;;;;;10.73;8.50;;;;;;;26.60;54.89;101324.22;4949988;28;119686;-74
2022/08/18 09:15:15;;;;;;;20.58;8.68;;;;;;;26.65;55.21;101314.72;4954856;28;118634;-73
2022/08/18 09:18:19;;;;;;;8.98;8.07;;;;;;;26.70;54.86;101328.69;4965552;28;124154;-73
2022/08/18 09:21:05;;;;;;;8.80;7.57;;;;;;;26.72;54.82;101332.09;4966598;28;124700;-74
2022/08/18 09:23:40;;;;;;;10.98;7.85;;;;;;;26.73;54.70;101333.78;4963511;28;119529;-74
2022/08/18 09:26:25;;;;;;;9.82;7.68;;;;;;;26.77;54.41;101324.31;4962054;28;119260;-74
2022/08/18 09:29:04;;;;;;;9.60;7.45;;;;;;;26.82;53.95;101332.78;4959171;28;124009;-74
2022/08/18 09:31:32;;;;;;;9.50;7.47;;;;;;;26.87;54.25;101330.44;4963388;28;124691;-77
2022/08/18 09:34:46;;;;;;;8.68;7.78;;;;;;;26.92;53.95;101325.38;4945335;28;119025;-76
2022/08/18 09:37:22;;;;;;;10.80;8.15;;;;;;;26.99;53.99;101325.56;4939636;28;119505;-79
2022/08/18 09:43:33;;;;;;;6.68;5.97;;;;;;;27.08;53.19;101315.56;4958506;28;124645;-77
2022/08/18 09:46:04;;;;;;;9.60;7.40;;;;;;;27.08;52.83;101310.13;4958703;28;121022;-77
2022/08/18 09:48:39;;;;;;;7.00;6.20;;;;;;;27.06;52.74;101315.72;4961653;28;96810;-76
2022/08/18 09:51:14;;;;;;;9.38;6.57;;;;;;;27.04;52.54;101316.91;4964030;28;122102;-75
2022/08/18 09:53:52;;;;;;;6.93;6.22;;;;;;;26.99;52.33;101318.28;4961414;28;123852;-76
2022/08/18 09:56:50;;;;;;;8.13;5.95;;;;;;;26.98;52.72;101316.56;4965064;28;119383;-73
2022/08/18 09:59:33;;;;;;;9.15;6.03;;;;;;;27.03;52.94;101323.34;4964459;28;119105;-74
2022/08/18 10:02:02;;;;;;;6.88;6.03;;;;;;;27.14;52.54;101314.88;4961191;28;124566;-76
2022/08/18 10:04:47;;;;;;;8.18;6.60;;;;;;;27.22;52.61;101320.38;4965038;28;123257;-76
2022/08/18 10:07:35;;;;;;;7.38;6.20;;;;;;;27.28;52.26;101327.03;4961912;28;120245;-74
2022/08/18 10:10:28;;;;;;;7.38;6.50;;;;;;;27.29;51.82;101324.13;4963047;28;119022;-77
2022/08/18 10:13:43;;;;;;;7.22;6.43;;;;;;;27.35;52.01;101323.47;4945697;28;122560;-77
2022/08/18 10:16:54;;;;;;;7.55;6.30;;;;;;;27.41;52.11;101321.09;4961634;28;122845;-76
2022/08/18 10:20:09;;;;;;;6.50;5.82;;;;;;;27.46;51.70;101318.72;4961268;28;119626;-74
2022/08/18 10:22:56;;;;;;;7.38;5.68;;;;;;;27.51;51.63;101310.91;4957131;28;119445;-74
2022/08/18 10:25:29;;;;;;;6.78;6.07;;;;;;;27.52;51.02;101308.03;4944231;28;123022;-75
2022/08/18 10:27:57;;;;;;;7.20;6.00;;;;;;;27.55;50.54;101301.38;4956226;28;123625;-74
2022/08/18 10:30:27;;;;;;;7.95;6.82;;;;;;;27.57;50.17;101310.22;4959252;28;119237;-78
2022/08/18 10:33:03;;;;;;;7.28;6.20;;;;;;;27.63;50.59;101301.38;4960967;28;118583;-76
2022/08/18 10:35:58;;;;;;;7.88;6.20;;;;;;;27.73;50.83;101299.34;4937828;28;123935;-77
2022/08/18 10:38:36;;;;;;;5.95;5.38;;;;;;;27.83;50.32;101298.31;4950157;28;124002;-76
2022/08/18 10:41:17;;;;;;;6.38;5.47;;;;;;;27.90;50.15;101293.94;4954873;28;120079;-76
2022/08/18 10:43:49;;;;;;;5.32;4.43;;;;;;;27.93;49.93;101285.41;4959911;28;119824;-76
2022/08/18 10:46:40;;;;;;;6.88;4.97;;;;;;;27.96;49.80;101287.78;4960946;28;123575;-76
2022/08/18 10:49:31;;;;;;;6.18;5.57;;;;;;;27.98;49.94;101296.63;4957852;28;123269;-76
2022/08/18 10:52:25;;;;;;;7.57;5.78;;;;;;;28.01;49.85;101290.84;4957309;28;118697;-76
2022/08/18 10:55:11;;;;;;;7.05;6.00;;;;;;;28.03;49.90;101299.69;4946210;28;117778;-77
2022/08/18 10:58:15;;;;;;;6.43;5.68;;;;;;;28.07;49.94;101294.75;4959575;28;124750;-76
2022/08/18 11:00:53;;;;;;;5.75;5.10;;;;;;;28.10;49.99;101297.94;4957869;28;124372;-76
2022/08/18 11:03:59;;;;;;;6.45;5.43;;;;;;;28.14;49.93;101307.50;4958847;28;119005;-75
2022/08/18 11:06:46;;;;;;;7.05;4.97;;;;;;;28.20;49.88;101305.97;4961366;28;118411;-74
2022/08/18 11:09:23;;;;;;;5.57;4.93;;;;;;;28.27;49.42;101300.66;4959926;28;124189;-75
2022/08/18 11:11:55;;;;;;;6.57;4.97;;;;;;;28.31;49.29;101297.41;4965983;28;123186;-74
2022/08/18 11:15:18;;;;;;;5.30;4.75;;;;;;;28.33;48.82;101305.38;4959143;28;119335;-76
2022/08/18 11:18:10;;;;;;;5.43;4.60;;;;;;;28.34;48.89;101296.22;4945570;28;119486;-74
2022/08/18 11:20:39;;;;;;;6.55;4.80;;;;;;;28.39;49.11;101293.81;4975492;28;122367;-75
2022/08/18 11:23:15;;;;;;;6.18;4.32;;;;;;;28.50;48.59;101285.25;4961189;28;123316;-74
2022/08/18 11:25:43;;;;;;;5.57;4.35;;;;;;;28.59;48.15;101277.91;4961160;28;119368;-74
2022/08/18 11:28:16;;;;;;;6.47;4.88;;;;;;;28.72;48.30;101271.91;4962141;28;119886;-75
2022/08/18 11:30:49;;;;;;;7.95;5.32;;;;;;;28.85;47.41;101261.25;4961117;28;124160;-77
2022/08/18 11:33:18;;;;;;;5.97;4.90;;;;;;;28.91;47.05;101255.09;4959693;28;122851;-77
2022/08/18 11:35:58;;;;;;;5.72;4.50;;;;;;;28.98;47.80;101257.09;4960875;28;120388;-77
2022/08/18 11:38:30;;;;;;;6.60;4.72;;;;;;;29.06;46.69;101251.59;4959660;28;120470;-76
2022/08/18 11:41:18;;;;;;;5.85;4.45;;;;;;;29.09;46.92;101251.22;4957796;28;122831;-77
2022/08/18 11:43:47;;;;;;;7.00;4.50;;;;;;;29.17;46.69;101247.63;4958189;28;124284;-74
2022/08/18 11:46:19;;;;;;;6.72;4.18;;;;;;;29.23;46.73;101247.72;4957764;28;119179;-73
2022/08/18 11:48:59;;;;;;;7.93;4.22;;;;;;;29.34;46.11;101242.91;4958769;28;118038;-72
2022/08/18 11:51:30;;;;;;;5.40;4.30;;;;;;;29.38;46.19;101236.03;4961537;28;124958;-73
2022/08/18 11:54:20;;;;;;;4.97;4.47;;;;;;;29.41;46.16;101235.69;4957153;28;124179;-73
2022/08/18 11:56:49;;;;;;;5.97;3.97;;;;;;;29.48;45.67;101234.75;4959183;28;119793;-72
2022/08/18 11:59:27;;;;;;;6.28;4.55;;;;;;;29.53;45.31;101230.63;4959057;28;119689;-74
2022/08/18 12:02:17;;;;;;;6.13;4.50;;;;;;;29.60;44.86;101226.13;4959465;28;123867;-73